createdAt,value
2019-01-23T00:00:01.681Z,-2.57
2019-01-23T00:00:05.963Z,-2.57
2019-01-23T00:00:10.249Z,-2.58
2019-01-23T00:00:14.437Z,-2.58
2019-01-23T00:00:18.721Z,-2.6
2019-01-23T00:00:23.003Z,-2.59
2019-01-23T00:00:27.288Z,-2.59
2019-01-23T00:00:31.473Z,-2.6
2019-01-23T00:00:35.760Z,-2.6
2019-01-23T00:00:39.959Z,-2.6
2019-01-23T00:00:44.248Z,-2.61
2019-01-23T00:00:48.534Z,-2.6
2019-01-23T00:00:52.819Z,-2.59
2019-01-23T00:00:57.005Z,-2.61
2019-01-23T00:01:01.295Z,-2.6
2019-01-23T00:01:05.642Z,-2.61
2019-01-23T00:01:09.827Z,-2.61
2019-01-23T00:01:14.151Z,-2.61
2019-01-23T00:01:18.431Z,-2.61
2019-01-23T00:01:22.721Z,-2.61
2019-01-23T00:01:27.011Z,-2.62
2019-01-23T00:01:31.193Z,-2.62
2019-01-23T00:01:35.481Z,-2.62
2019-01-23T00:01:39.765Z,-2.63
2019-01-23T00:01:44.053Z,-2.63
2019-01-23T00:01:48.349Z,-2.62
2019-01-23T00:01:52.538Z,-2.63
2019-01-23T00:01:56.729Z,-2.63
2019-01-23T00:02:01.020Z,-2.63
2019-01-23T00:02:05.212Z,-2.63
2019-01-23T00:02:09.398Z,-2.63
2019-01-23T00:02:13.583Z,-2.63
2019-01-23T00:02:17.876Z,-2.65
2019-01-23T00:02:22.189Z,-2.65
2019-01-23T00:02:26.378Z,-2.63
2019-01-23T00:02:30.664Z,-2.64
2019-01-23T00:02:34.849Z,-2.65
2019-01-23T00:02:39.134Z,-2.66
2019-01-23T00:02:43.429Z,-2.62
2019-01-23T00:02:47.525Z,-2.64
2019-01-23T00:02:51.816Z,-2.65
2019-01-23T00:02:56.103Z,-2.66
2019-01-23T00:03:00.385Z,-2.67
2019-01-23T00:03:04.570Z,-2.68
2019-01-23T00:03:08.850Z,-2.68
2019-01-23T00:03:13.137Z,-2.69
2019-01-23T00:03:17.420Z,-2.68
2019-01-23T00:03:21.707Z,-2.69
2019-01-23T00:03:25.994Z,-2.69
2019-01-23T00:03:30.281Z,-2.7
2019-01-23T00:03:34.563Z,-2.7
2019-01-23T00:03:38.792Z,-2.71
2019-01-23T00:03:43.091Z,-2.71
2019-01-23T00:03:47.280Z,-2.7
2019-01-23T00:03:51.585Z,-2.71
2019-01-23T00:03:55.901Z,-2.72
2019-01-23T00:03:59.897Z,-2.71
2019-01-23T00:04:04.097Z,-2.71
2019-01-23T00:04:08.379Z,-2.73
2019-01-23T00:04:12.675Z,-2.73
2019-01-23T00:04:16.860Z,-2.73
2019-01-23T00:04:21.151Z,-2.73
2019-01-23T00:04:25.342Z,-2.65
2019-01-23T00:04:29.438Z,-2.72
2019-01-23T00:04:33.725Z,-2.74
2019-01-23T00:04:37.911Z,-2.76
2019-01-23T00:04:42.110Z,-2.77
2019-01-23T00:04:46.437Z,-2.78
2019-01-23T00:04:50.720Z,-2.79
2019-01-23T00:04:54.816Z,-2.79
2019-01-23T00:04:59.106Z,-2.8
2019-01-23T00:05:03.392Z,-2.81
2019-01-23T00:05:07.688Z,-2.81
2019-01-23T00:05:11.978Z,-2.81
2019-01-23T00:05:16.168Z,-2.82
2019-01-23T00:05:20.360Z,-2.82
2019-01-23T00:05:24.650Z,-2.83
2019-01-23T00:05:28.938Z,-2.83
2019-01-23T00:05:33.132Z,-2.84
2019-01-23T00:05:37.322Z,-2.84
2019-01-23T00:05:41.638Z,-2.85
2019-01-23T00:05:45.832Z,-2.84
2019-01-23T00:05:50.022Z,-2.85
2019-01-23T00:05:54.209Z,-2.85
2019-01-23T00:05:58.489Z,-2.86
2019-01-23T00:06:02.771Z,-2.87
2019-01-23T00:06:07.104Z,-2.86
2019-01-23T00:06:11.395Z,-2.87
2019-01-23T00:06:15.590Z,-2.88
2019-01-23T00:06:19.881Z,-2.89
2019-01-23T00:06:24.165Z,-2.89
2019-01-23T00:06:28.455Z,-2.89
2019-01-23T00:06:32.777Z,-2.9
2019-01-23T00:06:37.063Z,-2.9
2019-01-23T00:06:41.348Z,-2.91
2019-01-23T00:06:45.634Z,-2.92
2019-01-23T00:06:49.923Z,-2.92
2019-01-23T00:06:54.209Z,-2.92
2019-01-23T00:06:58.506Z,-2.92
2019-01-23T00:07:02.811Z,-2.93
2019-01-23T00:07:07.097Z,-2.94
2019-01-23T00:07:11.281Z,-2.94
2019-01-23T00:07:15.468Z,-2.95
2019-01-23T00:07:19.750Z,-2.94
2019-01-23T00:07:24.036Z,-2.95
2019-01-23T00:07:28.239Z,-2.95
2019-01-23T00:07:32.542Z,-2.95
2019-01-23T00:07:36.733Z,-2.96
2019-01-23T00:07:41.019Z,-2.94
2019-01-23T00:07:45.209Z,-2.95
2019-01-23T00:07:49.503Z,-2.95
2019-01-23T00:07:53.790Z,-2.97
2019-01-23T00:07:58.079Z,-2.96
2019-01-23T00:08:02.469Z,-2.97
2019-01-23T00:08:06.757Z,-2.97
2019-01-23T00:08:10.949Z,-2.98
2019-01-23T00:08:15.231Z,-2.97
2019-01-23T00:08:19.538Z,-2.98
2019-01-23T00:08:23.822Z,-2.98
2019-01-23T00:08:28.111Z,-2.99
2019-01-23T00:08:32.300Z,-2.99
2019-01-23T00:08:36.583Z,-2.99
2019-01-23T00:08:40.877Z,-3
2019-01-23T00:08:45.161Z,-3
2019-01-23T00:08:49.455Z,-3.01
2019-01-23T00:08:53.648Z,-3.01
2019-01-23T00:08:57.840Z,-3.02
2019-01-23T00:09:02.180Z,-3.01
2019-01-23T00:09:06.471Z,-3.01
2019-01-23T00:09:10.794Z,-2.99
2019-01-23T00:09:15.079Z,-3.01
2019-01-23T00:09:19.361Z,-3.02
2019-01-23T00:09:23.550Z,-3.02
2019-01-23T00:09:27.648Z,-3.02
2019-01-23T00:09:31.937Z,-3.03
2019-01-23T00:09:36.237Z,-3.03
2019-01-23T00:09:40.428Z,-3.03
2019-01-23T00:09:44.713Z,-3.03
2019-01-23T00:09:48.998Z,-3.03
2019-01-23T00:09:53.282Z,-3.03
2019-01-23T00:09:57.472Z,-3.03
2019-01-23T00:10:01.665Z,-3.04
2019-01-23T00:10:05.949Z,-3.04
2019-01-23T00:10:10.233Z,-3.04
2019-01-23T00:10:14.517Z,-3.02
2019-01-23T00:10:18.802Z,-3.03
2019-01-23T00:10:22.989Z,-3.04
2019-01-23T00:10:27.284Z,-3.03
2019-01-23T00:10:31.466Z,-3.04
2019-01-23T00:10:35.751Z,-3.04
2019-01-23T00:10:40.040Z,-3.04
2019-01-23T00:10:44.328Z,-3.04
2019-01-23T00:10:48.518Z,-3.04
2019-01-23T00:10:52.720Z,-3.05
2019-01-23T00:10:57.005Z,-3.05
2019-01-23T00:11:01.199Z,-3.04
2019-01-23T00:11:05.485Z,-3.04
2019-01-23T00:11:09.670Z,-3.04
2019-01-23T00:11:13.956Z,-3.05
2019-01-23T00:11:18.242Z,-3.05
2019-01-23T00:11:22.337Z,-3.06
2019-01-23T00:11:26.527Z,-3.05
2019-01-23T00:11:30.723Z,-3.06
2019-01-23T00:11:34.914Z,-3.04
2019-01-23T00:11:39.102Z,-3.05
2019-01-23T00:11:43.389Z,-3.06
2019-01-23T00:11:47.698Z,-3.05
2019-01-23T00:11:51.989Z,-3.06
2019-01-23T00:11:56.311Z,-3.07
2019-01-23T00:12:00.605Z,-3.07
2019-01-23T00:12:04.690Z,-3.07
2019-01-23T00:12:08.981Z,-3.08
2019-01-23T00:12:13.265Z,-3.07
2019-01-23T00:12:17.253Z,-3.08
2019-01-23T00:12:21.445Z,-3.09
2019-01-23T00:12:25.729Z,-3.08
2019-01-23T00:12:29.919Z,-3.09
2019-01-23T00:12:34.221Z,-3.09
2019-01-23T00:12:38.511Z,-3.1
2019-01-23T00:12:42.801Z,-3.1
2019-01-23T00:12:47.097Z,-3.11
2019-01-23T00:12:51.377Z,-3.11
2019-01-23T00:12:55.659Z,-3.11
2019-01-23T00:12:59.941Z,-3.12
2019-01-23T00:13:05.739Z,-3.13
2019-01-23T00:13:09.943Z,-3.13
2019-01-23T00:13:14.129Z,-3.12
2019-01-23T00:13:18.415Z,-3.13
2019-01-23T00:13:22.700Z,-3.15
2019-01-23T00:13:26.988Z,-3.14
2019-01-23T00:13:31.279Z,-3.13
2019-01-23T00:13:35.377Z,-3.14
2019-01-23T00:13:39.573Z,-3.14
2019-01-23T00:13:43.803Z,-3.15
2019-01-23T00:13:48.088Z,-3.15
2019-01-23T00:13:52.289Z,-3.15
2019-01-23T00:13:56.579Z,-3.15
2019-01-23T00:14:00.864Z,-3.15
2019-01-23T00:14:05.154Z,-3.16
2019-01-23T00:14:09.435Z,-3.17
2019-01-23T00:14:13.529Z,-3.15
2019-01-23T00:14:17.716Z,-3.17
2019-01-23T00:14:22.006Z,-3.15
2019-01-23T00:14:26.320Z,-3.17
2019-01-23T00:14:30.603Z,-3.16
2019-01-23T00:14:34.793Z,-3.18
2019-01-23T00:14:39.087Z,-3.17
2019-01-23T00:14:43.276Z,-3.17
2019-01-23T00:14:47.561Z,-3.17
2019-01-23T00:14:51.847Z,-3.18
2019-01-23T00:14:56.140Z,-3.19
2019-01-23T00:15:00.425Z,-3.19
2019-01-23T00:15:04.614Z,-3.18
2019-01-23T00:15:08.903Z,-3.18
2019-01-23T00:15:13.198Z,-3.18
2019-01-23T00:15:17.488Z,-3.19
2019-01-23T00:15:21.778Z,-3.19
2019-01-23T00:15:26.069Z,-3.2
2019-01-23T00:15:30.374Z,-3.19
2019-01-23T00:15:34.561Z,-3.2
2019-01-23T00:15:38.756Z,-3.2
2019-01-23T00:15:43.040Z,-3.2
2019-01-23T00:15:47.248Z,-3.22
2019-01-23T00:15:51.447Z,-3.21
2019-01-23T00:15:55.735Z,-3.2
2019-01-23T00:16:00.037Z,-3.21
2019-01-23T00:16:04.274Z,-3.21
2019-01-23T00:16:08.468Z,-3.23
2019-01-23T00:16:12.759Z,-3.22
2019-01-23T00:16:16.952Z,-3.23
2019-01-23T00:16:21.259Z,-3.23
2019-01-23T00:16:25.545Z,-3.24
2019-01-23T00:16:29.826Z,-3.24
2019-01-23T00:16:34.117Z,-3.24
2019-01-23T00:16:38.310Z,-3.23
2019-01-23T00:16:42.498Z,-3.23
2019-01-23T00:16:46.818Z,-3.24
2019-01-23T00:16:51.113Z,-3.24
2019-01-23T00:16:55.303Z,-3.23
2019-01-23T00:16:59.593Z,-3.25
2019-01-23T00:17:03.778Z,-3.24
2019-01-23T00:17:08.061Z,-3.25
2019-01-23T00:17:12.350Z,-3.24
2019-01-23T00:17:16.441Z,-3.25
2019-01-23T00:17:20.725Z,-3.24
2019-01-23T00:17:25.010Z,-3.25
2019-01-23T00:17:29.292Z,-3.25
2019-01-23T00:17:33.582Z,-3.25
2019-01-23T00:17:37.862Z,-3.25
2019-01-23T00:17:42.146Z,-3.26
2019-01-23T00:17:46.333Z,-3.25
2019-01-23T00:17:50.620Z,-3.26
2019-01-23T00:17:54.806Z,-3.26
2019-01-23T00:17:59.112Z,-3.26
2019-01-23T00:18:03.302Z,-3.25
2019-01-23T00:18:07.592Z,-3.26
2019-01-23T00:18:11.775Z,-3.27
2019-01-23T00:18:16.067Z,-3.27
2019-01-23T00:18:20.351Z,-3.27
2019-01-23T00:18:24.642Z,-3.26
2019-01-23T00:18:30.060Z,-3.26
2019-01-23T00:18:34.348Z,-3.25
2019-01-23T00:18:38.644Z,-3.24
2019-01-23T00:18:42.929Z,-3.26
2019-01-23T00:18:47.219Z,-3.26
2019-01-23T00:18:51.504Z,-3.24
2019-01-23T00:18:55.694Z,-3.25
2019-01-23T00:18:59.981Z,-3.25
2019-01-23T00:19:04.170Z,-3.24
2019-01-23T00:19:08.357Z,-3.25
2019-01-23T00:19:12.643Z,-3.25
2019-01-23T00:19:16.836Z,-3.25
2019-01-23T00:19:21.026Z,-3.25
2019-01-23T00:19:25.221Z,-3.25
2019-01-23T00:19:29.504Z,-3.25
2019-01-23T00:19:33.786Z,-3.26
2019-01-23T00:19:38.075Z,-3.25
2019-01-23T00:19:42.362Z,-3.26
2019-01-23T00:19:46.653Z,-3.26
2019-01-23T00:19:50.954Z,-3.26
2019-01-23T00:19:55.246Z,-3.27
2019-01-23T00:19:59.537Z,-3.26
2019-01-23T00:20:03.843Z,-3.26
2019-01-23T00:20:08.135Z,-3.26
2019-01-23T00:20:12.423Z,-3.26
2019-01-23T00:20:16.715Z,-3.26
2019-01-23T00:20:20.905Z,-3.26
2019-01-23T00:20:25.198Z,-3.25
2019-01-23T00:20:29.383Z,-3.26
2019-01-23T00:20:33.673Z,-3.26
2019-01-23T00:20:37.957Z,-3.26
2019-01-23T00:20:42.143Z,-3.27
2019-01-23T00:20:46.244Z,-3.26
2019-01-23T00:20:50.532Z,-3.26
2019-01-23T00:20:54.826Z,-3.26
2019-01-23T00:20:59.116Z,-3.26
2019-01-23T00:21:03.449Z,-3.27
2019-01-23T00:21:07.746Z,-3.26
2019-01-23T00:21:12.033Z,-3.26
2019-01-23T00:21:16.316Z,-3.27
2019-01-23T00:21:20.517Z,-3.26
2019-01-23T00:21:24.804Z,-3.26
2019-01-23T00:21:29.089Z,-3.26
2019-01-23T00:21:33.275Z,-3.26
2019-01-23T00:21:37.558Z,-3.26
2019-01-23T00:21:41.846Z,-3.25
2019-01-23T00:21:46.039Z,-3.25
2019-01-23T00:21:50.329Z,-3.25
2019-01-23T00:21:54.618Z,-3.27
2019-01-23T00:21:58.805Z,-3.26
2019-01-23T00:22:03.103Z,-3.26
2019-01-23T00:22:07.405Z,-3.24
2019-01-23T00:22:11.695Z,-3.25
2019-01-23T00:22:15.978Z,-3.26
2019-01-23T00:22:20.303Z,-3.25
2019-01-23T00:22:24.611Z,-3.24
2019-01-23T00:22:28.895Z,-3.26
2019-01-23T00:22:33.087Z,-3.24
2019-01-23T00:22:37.278Z,-3.24
2019-01-23T00:22:41.565Z,-3.23
2019-01-23T00:22:45.700Z,-3.24
2019-01-23T00:22:49.888Z,-3.24
2019-01-23T00:22:54.172Z,-3.24
2019-01-23T00:22:58.361Z,-3.24
2019-01-23T00:23:02.652Z,-3.24
2019-01-23T00:23:06.938Z,-3.23
2019-01-23T00:23:11.229Z,-3.23
2019-01-23T00:23:15.322Z,-3.23
2019-01-23T00:23:19.611Z,-3.23
2019-01-23T00:23:23.901Z,-3.22
2019-01-23T00:23:27.997Z,-3.22
2019-01-23T00:23:32.236Z,-3.21
2019-01-23T00:23:36.524Z,-3.21
2019-01-23T00:23:40.717Z,-3.21
2019-01-23T00:23:45.006Z,-3.1
2019-01-23T00:23:49.293Z,-2.97
2019-01-23T00:23:53.584Z,-3.09
2019-01-23T00:23:57.871Z,-3.12
2019-01-23T00:24:02.063Z,-3.13
2019-01-23T00:24:06.392Z,-3.14
2019-01-23T00:24:10.676Z,-3.15
2019-01-23T00:24:14.961Z,-3.15
2019-01-23T00:24:19.249Z,-3.16
2019-01-23T00:24:23.532Z,-3.16
2019-01-23T00:24:27.823Z,-3.17
2019-01-23T00:24:32.108Z,-3.17
2019-01-23T00:24:36.400Z,-3.18
2019-01-23T00:24:40.684Z,-3.18
2019-01-23T00:24:44.969Z,-3.18
2019-01-23T00:24:49.259Z,-3.18
2019-01-23T00:24:53.444Z,-3.19
2019-01-23T00:24:57.734Z,-3.18
2019-01-23T00:25:01.930Z,-3.2
2019-01-23T00:25:06.225Z,-3.18
2019-01-23T00:25:10.513Z,-3.18
2019-01-23T00:25:14.806Z,-3.19
2019-01-23T00:25:19.015Z,-3.18
2019-01-23T00:25:23.201Z,-3.19
2019-01-23T00:25:27.485Z,-3.2
2019-01-23T00:25:31.771Z,-3.2
2019-01-23T00:25:36.065Z,-3.19
2019-01-23T00:25:40.353Z,-3.19
2019-01-23T00:25:44.547Z,-3.19
2019-01-23T00:25:50.142Z,-3.19
2019-01-23T00:25:54.432Z,-3.2
2019-01-23T00:25:58.726Z,-3.08
2019-01-23T00:26:02.918Z,-2.86
2019-01-23T00:26:07.226Z,-2.75
2019-01-23T00:26:11.522Z,-2.65
2019-01-23T00:26:15.805Z,-2.56
2019-01-23T00:26:19.899Z,-2.44
2019-01-23T00:26:24.198Z,-2.37
2019-01-23T00:26:28.386Z,-2.29
2019-01-23T00:26:32.680Z,-2.21
2019-01-23T00:26:36.968Z,-2.16
2019-01-23T00:26:41.255Z,-2.1
2019-01-23T00:26:45.475Z,-2.08
2019-01-23T00:26:49.574Z,-2.06
2019-01-23T00:26:53.861Z,-2.04
2019-01-23T00:26:58.053Z,-2.01
2019-01-23T00:27:02.504Z,-1.98
2019-01-23T00:27:06.794Z,-1.95
2019-01-23T00:27:10.991Z,-1.91
2019-01-23T00:27:15.280Z,-1.82
2019-01-23T00:27:19.524Z,-1.77
2019-01-23T00:27:23.720Z,-1.73
2019-01-23T00:27:28.011Z,-1.7
2019-01-23T00:27:32.293Z,-1.74
2019-01-23T00:27:36.577Z,-1.72
2019-01-23T00:27:40.870Z,-2
2019-01-23T00:27:45.150Z,-2.12
2019-01-23T00:27:49.440Z,-2.19
2019-01-23T00:27:53.728Z,-2.25
2019-01-23T00:27:58.027Z,-2.31
2019-01-23T00:28:02.228Z,-2.34
2019-01-23T00:28:06.512Z,-2.4
2019-01-23T00:28:10.799Z,-2.42
2019-01-23T00:28:15.083Z,-2.46
2019-01-23T00:28:19.368Z,-2.49
2019-01-23T00:28:23.657Z,-2.53
2019-01-23T00:28:27.956Z,-2.54
2019-01-23T00:28:32.244Z,-2.58
2019-01-23T00:28:42.195Z,-2.6
2019-01-23T00:28:46.716Z,-2.64
2019-01-23T00:28:51.002Z,-2.62
2019-01-23T00:28:55.293Z,-2.64
2019-01-23T00:28:59.579Z,-2.65
2019-01-23T00:29:03.871Z,-2.67
2019-01-23T00:29:08.060Z,-2.67
2019-01-23T00:29:12.347Z,-2.68
2019-01-23T00:29:16.634Z,-2.7
2019-01-23T00:29:20.933Z,-2.72
2019-01-23T00:29:25.214Z,-2.73
2019-01-23T00:29:29.501Z,-2.75
2019-01-23T00:29:33.790Z,-2.75
2019-01-23T00:29:38.079Z,-2.77
2019-01-23T00:29:42.303Z,-2.78
2019-01-23T00:29:46.594Z,-2.8
2019-01-23T00:29:50.884Z,-2.8
2019-01-23T00:29:55.170Z,-2.81
2019-01-23T00:29:59.459Z,-2.82
2019-01-23T00:30:03.773Z,-2.82
2019-01-23T00:30:08.063Z,-2.83
2019-01-23T00:30:12.357Z,-2.84
2019-01-23T00:30:16.587Z,-2.85
2019-01-23T00:30:20.879Z,-2.86
2019-01-23T00:30:25.072Z,-2.87
2019-01-23T00:30:29.361Z,-2.88
2019-01-23T00:30:33.657Z,-2.89
2019-01-23T00:30:37.941Z,-2.9
2019-01-23T00:30:42.222Z,-2.9
2019-01-23T00:30:46.415Z,-2.91
2019-01-23T00:30:50.700Z,-2.91
2019-01-23T00:30:54.985Z,-2.92
2019-01-23T00:30:59.175Z,-2.93
2019-01-23T00:31:03.513Z,-2.94
2019-01-23T00:31:07.812Z,-2.94
2019-01-23T00:31:12.005Z,-2.96
2019-01-23T00:31:16.105Z,-2.96
2019-01-23T00:31:20.389Z,-2.96
2019-01-23T00:31:24.675Z,-2.97
2019-01-23T00:31:28.861Z,-2.98
2019-01-23T00:31:33.057Z,-2.99
2019-01-23T00:31:37.256Z,-3
2019-01-23T00:31:41.547Z,-3
2019-01-23T00:31:45.837Z,-3.01
2019-01-23T00:31:50.026Z,-3.01
2019-01-23T00:31:54.345Z,-3.03
2019-01-23T00:31:58.536Z,-3.03
2019-01-23T00:32:02.729Z,-3.03
2019-01-23T00:32:06.915Z,-3.05
2019-01-23T00:32:11.235Z,-3.05
2019-01-23T00:32:15.523Z,-3.05
2019-01-23T00:32:19.713Z,-3.07
2019-01-23T00:32:23.910Z,-3.07
2019-01-23T00:32:28.199Z,-3.08
2019-01-23T00:32:32.292Z,-3.09
2019-01-23T00:32:36.496Z,-3.1
2019-01-23T00:32:40.787Z,-3.09
2019-01-23T00:32:45.071Z,-3.1
2019-01-23T00:32:49.357Z,-3.1
2019-01-23T00:32:53.701Z,-3.11
2019-01-23T00:32:57.993Z,-3.12
2019-01-23T00:33:02.291Z,-3.12
2019-01-23T00:33:06.484Z,-3.12
2019-01-23T00:33:10.770Z,-3.13
2019-01-23T00:33:15.065Z,-3.14
2019-01-23T00:33:19.263Z,-3.14
2019-01-23T00:33:23.557Z,-3.15
2019-01-23T00:33:27.890Z,-3.16
2019-01-23T00:33:32.075Z,-3.17
2019-01-23T00:33:36.358Z,-3.17
2019-01-23T00:33:40.546Z,-3.05
2019-01-23T00:33:44.836Z,-2.79
2019-01-23T00:33:49.171Z,-2.63
2019-01-23T00:33:53.458Z,-2.54
2019-01-23T00:33:57.751Z,-2.55
2019-01-23T00:34:02.041Z,-2.64
2019-01-23T00:34:06.332Z,-2.77
2019-01-23T00:34:10.614Z,-2.84
2019-01-23T00:34:14.906Z,-2.87
2019-01-23T00:34:19.199Z,-2.9
2019-01-23T00:34:23.394Z,-2.93
2019-01-23T00:34:27.580Z,-2.94
2019-01-23T00:34:31.865Z,-2.97
2019-01-23T00:34:36.151Z,-2.98
2019-01-23T00:34:40.430Z,-2.99
2019-01-23T00:34:44.715Z,-3.01
2019-01-23T00:34:48.999Z,-3.02
2019-01-23T00:34:53.286Z,-3.04
2019-01-23T00:34:57.592Z,-3.05
2019-01-23T00:35:01.817Z,-3.07
2019-01-23T00:35:06.106Z,-3.07
2019-01-23T00:35:10.293Z,-3.08
2019-01-23T00:35:14.580Z,-3.09
2019-01-23T00:35:18.868Z,-3.1
2019-01-23T00:35:23.062Z,-3.11
2019-01-23T00:35:27.250Z,-3.11
2019-01-23T00:35:31.439Z,-3.12
2019-01-23T00:35:35.723Z,-3.14
2019-01-23T00:35:40.004Z,-3.13
2019-01-23T00:35:44.295Z,-3.13
2019-01-23T00:35:48.584Z,-3.14
2019-01-23T00:35:52.767Z,-3.16
2019-01-23T00:35:57.060Z,-3.17
2019-01-23T00:36:01.341Z,-3.17
2019-01-23T00:36:05.634Z,-3.17
2019-01-23T00:36:09.827Z,-3.19
2019-01-23T00:36:14.119Z,-3.18
2019-01-23T00:36:18.320Z,-3.19
2019-01-23T00:36:22.610Z,-3.18
2019-01-23T00:36:26.909Z,-3.2
2019-01-23T00:36:31.189Z,-3.19
2019-01-23T00:36:35.379Z,-3.21
2019-01-23T00:36:39.675Z,-3.21
2019-01-23T00:36:43.962Z,-3.21
2019-01-23T00:36:48.251Z,-3.21
2019-01-23T00:36:52.543Z,-3.21
2019-01-23T00:36:56.828Z,-3.22
2019-01-23T00:37:01.114Z,-3.23
2019-01-23T00:37:05.401Z,-3.22
2019-01-23T00:37:09.685Z,-3.23
2019-01-23T00:37:13.995Z,-3.24
2019-01-23T00:37:18.286Z,-3.23
2019-01-23T00:37:22.569Z,-3.24
2019-01-23T00:37:26.850Z,-3.24
2019-01-23T00:37:31.133Z,-3.24
2019-01-23T00:37:35.434Z,-3.24
2019-01-23T00:37:39.669Z,-3.25
2019-01-23T00:37:43.960Z,-3.26
2019-01-23T00:37:48.243Z,-3.27
2019-01-23T00:37:52.527Z,-3.26
2019-01-23T00:37:56.715Z,-3.26
2019-01-23T00:38:00.811Z,-3.26
2019-01-23T00:38:05.112Z,-3.26
2019-01-23T00:38:09.307Z,-3.26
2019-01-23T00:38:13.597Z,-3.28
2019-01-23T00:38:17.791Z,-3.27
2019-01-23T00:38:23.397Z,-3.28
2019-01-23T00:38:27.685Z,-3.27
2019-01-23T00:38:31.973Z,-3.28
2019-01-23T00:38:36.185Z,-3.28
2019-01-23T00:38:40.481Z,-3.28
2019-01-23T00:38:44.670Z,-3.28
2019-01-23T00:38:48.859Z,-3.28
2019-01-23T00:38:53.145Z,-3.28
2019-01-23T00:38:57.437Z,-3.28
2019-01-23T00:39:01.722Z,-3.29
2019-01-23T00:39:06.015Z,-3.29
2019-01-23T00:39:10.307Z,-3.29
2019-01-23T00:39:14.596Z,-3.29
2019-01-23T00:39:18.895Z,-3.29
2019-01-23T00:39:23.190Z,-3.28
2019-01-23T00:39:27.484Z,-3.28
2019-01-23T00:39:31.772Z,-3.28
2019-01-23T00:39:36.063Z,-3.29
2019-01-23T00:39:40.156Z,-3.28
2019-01-23T00:39:44.450Z,-3.3
2019-01-23T00:39:48.738Z,-3.28
2019-01-23T00:39:53.031Z,-3.29
2019-01-23T00:39:57.323Z,-3.28
2019-01-23T00:40:01.758Z,-3.29
2019-01-23T00:40:06.059Z,-3.29
2019-01-23T00:40:10.366Z,-3.3
2019-01-23T00:40:14.673Z,-3.29
2019-01-23T00:40:18.986Z,-3.29
2019-01-23T00:40:23.282Z,-3.3
2019-01-23T00:40:27.481Z,-3.3
2019-01-23T00:40:31.765Z,-3.3
2019-01-23T00:40:36.057Z,-3.3
2019-01-23T00:40:40.348Z,-3.31
2019-01-23T00:40:44.641Z,-3.3
2019-01-23T00:40:48.929Z,-3.3
2019-01-23T00:40:53.227Z,-3.31
2019-01-23T00:40:57.554Z,-3.3
2019-01-23T00:41:01.854Z,-3.31
2019-01-23T00:41:06.139Z,-3.3
2019-01-23T00:41:10.425Z,-3.31
2019-01-23T00:41:14.732Z,-3.31
2019-01-23T00:41:19.036Z,-3.31
2019-01-23T00:41:23.321Z,-3.32
2019-01-23T00:41:27.614Z,-3.32
2019-01-23T00:41:31.915Z,-3.31
2019-01-23T00:41:36.218Z,-3.32
2019-01-23T00:41:40.504Z,-3.32
2019-01-23T00:41:44.832Z,-3.33
2019-01-23T00:41:49.131Z,-3.33
2019-01-23T00:41:53.421Z,-3.33
2019-01-23T00:41:57.726Z,-3.33
2019-01-23T00:42:02.016Z,-3.34
2019-01-23T00:42:06.301Z,-3.34
2019-01-23T00:42:10.587Z,-3.34
2019-01-23T00:42:14.884Z,-3.35
2019-01-23T00:42:19.181Z,-3.35
2019-01-23T00:42:23.477Z,-3.35
2019-01-23T00:42:27.774Z,-3.35
2019-01-23T00:42:32.069Z,-3.35
2019-01-23T00:42:36.363Z,-3.35
2019-01-23T00:42:40.654Z,-3.35
2019-01-23T00:42:44.959Z,-3.35
2019-01-23T00:42:49.158Z,-3.36
2019-01-23T00:42:53.477Z,-3.35
2019-01-23T00:42:57.773Z,-3.35
2019-01-23T00:43:02.069Z,-3.35
2019-01-23T00:43:06.358Z,-3.36
2019-01-23T00:43:10.562Z,-3.35
2019-01-23T00:43:14.847Z,-3.35
2019-01-23T00:43:19.139Z,-3.34
2019-01-23T00:43:23.427Z,-3.34
2019-01-23T00:43:27.763Z,-3.34
2019-01-23T00:43:32.059Z,-3.34
2019-01-23T00:43:36.345Z,-3.35
2019-01-23T00:43:40.636Z,-3.35
2019-01-23T00:43:44.927Z,-3.35
2019-01-23T00:43:49.220Z,-3.35
2019-01-23T00:43:53.510Z,-3.35
2019-01-23T00:43:57.801Z,-3.34
2019-01-23T00:44:02.088Z,-3.35
2019-01-23T00:44:06.381Z,-3.35
2019-01-23T00:44:10.677Z,-3.35
2019-01-23T00:44:14.969Z,-3.35
2019-01-23T00:44:19.259Z,-3.35
2019-01-23T00:44:23.455Z,-3.35
2019-01-23T00:44:27.787Z,-3.36
2019-01-23T00:44:32.072Z,-3.35
2019-01-23T00:44:36.360Z,-3.36
2019-01-23T00:44:40.669Z,-3.35
2019-01-23T00:44:44.959Z,-3.35
2019-01-23T00:44:49.251Z,-3.36
2019-01-23T00:44:53.581Z,-3.37
2019-01-23T00:44:57.803Z,-3.36
2019-01-23T00:45:02.090Z,-3.37
2019-01-23T00:45:06.377Z,-3.37
2019-01-23T00:45:10.677Z,-3.37
2019-01-23T00:45:14.964Z,-3.38
2019-01-23T00:45:18.971Z,-3.39
2019-01-23T00:45:23.264Z,-3.38
2019-01-23T00:45:27.458Z,-3.39
2019-01-23T00:45:31.698Z,-3.4
2019-01-23T00:45:35.992Z,-3.4
2019-01-23T00:45:40.276Z,-3.39
2019-01-23T00:45:44.607Z,-3.4
2019-01-23T00:45:48.898Z,-3.4
2019-01-23T00:45:53.198Z,-3.4
2019-01-23T00:45:57.517Z,-3.4
2019-01-23T00:46:01.807Z,-3.4
2019-01-23T00:46:06.008Z,-3.41
2019-01-23T00:46:10.300Z,-3.4
2019-01-23T00:46:14.583Z,-3.41
2019-01-23T00:46:18.869Z,-3.41
2019-01-23T00:46:23.067Z,-3.42
2019-01-23T00:46:27.362Z,-3.41
2019-01-23T00:46:31.650Z,-3.42
2019-01-23T00:46:35.939Z,-3.41
2019-01-23T00:46:40.231Z,-3.41
2019-01-23T00:46:44.515Z,-3.41
2019-01-23T00:46:48.800Z,-3.41
2019-01-23T00:46:53.099Z,-3.42
2019-01-23T00:46:57.389Z,-3.41
2019-01-23T00:47:01.682Z,-3.42
2019-01-23T00:47:05.972Z,-3.41
2019-01-23T00:47:10.266Z,-3.41
2019-01-23T00:47:14.559Z,-3.43
2019-01-23T00:47:18.762Z,-3.42
2019-01-23T00:47:23.050Z,-3.42
2019-01-23T00:47:27.360Z,-3.42
2019-01-23T00:47:31.650Z,-3.43
2019-01-23T00:47:35.959Z,-3.42
2019-01-23T00:47:40.153Z,-3.42
2019-01-23T00:47:44.440Z,-3.43
2019-01-23T00:47:48.734Z,-3.42
2019-01-23T00:47:53.019Z,-3.43
2019-01-23T00:47:57.216Z,-3.43
2019-01-23T00:48:01.508Z,-3.43
2019-01-23T00:48:05.800Z,-3.43
2019-01-23T00:48:10.088Z,-3.43
2019-01-23T00:48:14.280Z,-3.43
2019-01-23T00:48:18.478Z,-3.43
2019-01-23T00:48:22.493Z,-3.43
2019-01-23T00:48:26.784Z,-3.44
2019-01-23T00:48:31.081Z,-3.44
2019-01-23T00:48:35.280Z,-3.44
2019-01-23T00:48:39.567Z,-3.45
2019-01-23T00:48:43.863Z,-3.45
2019-01-23T00:48:48.153Z,-3.45
2019-01-23T00:48:52.441Z,-3.46
2019-01-23T00:48:56.629Z,-3.46
2019-01-23T00:49:00.916Z,-3.45
2019-01-23T00:49:05.210Z,-3.46
2019-01-23T00:49:09.504Z,-3.47
2019-01-23T00:49:13.791Z,-3.47
2019-01-23T00:49:18.093Z,-3.46
2019-01-23T00:49:22.380Z,-3.47
2019-01-23T00:49:26.673Z,-3.47
2019-01-23T00:49:30.955Z,-3.48
2019-01-23T00:49:35.242Z,-3.48
2019-01-23T00:49:39.432Z,-3.48
2019-01-23T00:49:43.720Z,-3.49
2019-01-23T00:49:47.909Z,-3.48
2019-01-23T00:49:52.092Z,-3.49
2019-01-23T00:49:56.374Z,-3.49
2019-01-23T00:50:00.661Z,-3.5
2019-01-23T00:50:05.006Z,-3.49
2019-01-23T00:50:09.297Z,-3.49
2019-01-23T00:50:13.579Z,-3.49
2019-01-23T00:50:17.875Z,-3.49
2019-01-23T00:50:22.160Z,-3.49
2019-01-23T00:50:26.462Z,-3.49
2019-01-23T00:50:30.751Z,-3.5
2019-01-23T00:50:35.040Z,-3.5
2019-01-23T00:50:39.357Z,-3.49
2019-01-23T00:50:43.641Z,-3.5
2019-01-23T00:50:47.920Z,-3.5
2019-01-23T00:50:52.221Z,-3.51
2019-01-23T00:50:56.517Z,-3.51
2019-01-23T00:51:00.714Z,-3.5
2019-01-23T00:51:04.910Z,-3.51
2019-01-23T00:51:09.192Z,-3.51
2019-01-23T00:51:13.479Z,-3.51
2019-01-23T00:51:17.768Z,-3.52
2019-01-23T00:51:22.053Z,-3.52
2019-01-23T00:51:26.261Z,-3.52
2019-01-23T00:51:30.456Z,-3.52
2019-01-23T00:51:34.745Z,-3.52
2019-01-23T00:51:39.042Z,-3.52
2019-01-23T00:51:43.335Z,-3.53
2019-01-23T00:51:47.623Z,-3.52
2019-01-23T00:51:51.910Z,-3.53
2019-01-23T00:51:56.195Z,-3.54
2019-01-23T00:52:00.381Z,-3.53
2019-01-23T00:52:04.688Z,-3.55
2019-01-23T00:52:08.983Z,-3.54
2019-01-23T00:52:13.279Z,-3.55
2019-01-23T00:52:17.479Z,-3.53
2019-01-23T00:52:21.674Z,-3.54
2019-01-23T00:52:25.679Z,-3.56
2019-01-23T00:52:29.983Z,-3.55
2019-01-23T00:52:34.275Z,-3.55
2019-01-23T00:52:38.364Z,-3.56
2019-01-23T00:52:42.651Z,-3.56
2019-01-23T00:52:46.936Z,-3.55
2019-01-23T00:52:51.223Z,-3.56
2019-01-23T00:52:55.517Z,-3.55
2019-01-23T00:52:59.805Z,-3.56
2019-01-23T00:53:04.152Z,-3.56
2019-01-23T00:53:08.440Z,-3.56
2019-01-23T00:53:12.728Z,-3.56
2019-01-23T00:53:17.020Z,-3.56
2019-01-23T00:53:21.311Z,-3.54
2019-01-23T00:53:25.597Z,-3.54
2019-01-23T00:53:29.799Z,-3.55
2019-01-23T00:53:33.892Z,-3.54
2019-01-23T00:53:38.178Z,-3.55
2019-01-23T00:53:42.471Z,-3.55
2019-01-23T00:53:46.477Z,-3.55
2019-01-23T00:53:50.770Z,-3.55
2019-01-23T00:53:55.066Z,-3.55
2019-01-23T00:53:59.169Z,-3.54
2019-01-23T00:54:03.561Z,-3.54
2019-01-23T00:54:07.853Z,-3.55
2019-01-23T00:54:12.153Z,-3.53
2019-01-23T00:54:16.267Z,-3.53
2019-01-23T00:54:20.471Z,-3.53
2019-01-23T00:54:24.766Z,-3.53
2019-01-23T00:54:29.060Z,-3.54
2019-01-23T00:54:33.070Z,-3.53
2019-01-23T00:54:37.369Z,-3.53
2019-01-23T00:54:41.660Z,-3.53
2019-01-23T00:54:45.956Z,-3.53
2019-01-23T00:54:50.170Z,-3.52
2019-01-23T00:54:54.382Z,-3.53
2019-01-23T00:54:58.677Z,-3.53
2019-01-23T00:55:02.981Z,-3.53
2019-01-23T00:55:07.176Z,-3.53
2019-01-23T00:55:11.366Z,-3.53
2019-01-23T00:55:15.710Z,-3.52